Time;durP1;ratioP1;P1;durP2;ratioP2;P2;SDS_P1;SDS_P2;PMS_P1;PMS_P2;Temp;Humidity;BMP_temperature;BMP_pressure;BME280_temperature;BME280_humidity;BME280_pressure;Samples;Min_cycle;Max_cycle;Signal;HPM_P1;HPM_P2
2023/10/10 00:01:03;;;;;;;17.60;5.75;;;14.00;99.90;;;;;;5065361;28;20040;-67
2023/10/10 00:03:31;;;;;;;13.65;5.72;;;13.90;99.90;;;;;;5069557;28;20029;-67
2023/10/10 00:06:05;;;;;;;13.77;5.20;;;13.80;99.90;;;;;;5054214;28;20143;-67
2023/10/10 00:08:36;;;;;;;12.50;5.65;;;13.80;99.90;;;;;;5061711;28;20032;-68
2023/10/10 00:11:14;;;;;;;17.05;5.85;;;13.80;99.90;;;;;;5066782;28;20056;-68
2023/10/10 00:13:46;;;;;;;15.32;5.47;;;13.70;99.90;;;;;;5057166;28;20039;-68
2023/10/10 00:16:12;;;;;;;13.88;5.88;;;13.60;99.90;;;;;;5057235;28;20096;-68
2023/10/10 00:18:43;;;;;;;18.05;5.60;;;13.60;99.90;;;;;;5067389;28;20118;-69
2023/10/10 00:21:11;;;;;;;13.75;5.22;;;13.70;99.90;;;;;;5055903;28;20106;-67
2023/10/10 00:23:47;;;;;;;11.05;4.88;;;13.60;99.90;;;;;;5058924;28;20177;-67
2023/10/10 00:26:14;;;;;;;9.32;4.88;;;13.60;99.90;;;;;;5060628;28;20017;-69
2023/10/10 00:28:44;;;;;;;12.18;5.40;;;13.50;99.90;;;;;;5069712;28;20044;-67
2023/10/10 00:31:12;;;;;;;13.48;5.65;;;13.50;99.90;;;;;;5054238;28;20133;-67
2023/10/10 00:33:38;;;;;;;11.52;5.40;;;13.50;99.90;;;;;;5061579;28;20048;-67
2023/10/10 00:36:06;;;;;;;11.73;5.10;;;13.40;99.90;;;;;;5063115;28;20275;-67
2023/10/10 00:38:32;;;;;;;12.98;5.50;;;13.40;99.90;;;;;;5062178;28;20059;-67
2023/10/10 00:40:57;;;;;;;12.20;5.05;;;13.40;99.90;;;;;;5053037;28;20069;-67
2023/10/10 00:43:24;;;;;;;12.52;5.05;;;13.40;99.90;;;;;;5059577;28;20033;-67
2023/10/10 00:45:57;;;;;;;11.20;4.95;;;13.30;99.90;;;;;;5063416;28;20036;-67
2023/10/10 00:48:24;;;;;;;14.65;5.85;;;13.30;99.90;;;;;;5046009;28;20549;-68
2023/10/10 00:51:05;;;;;;;15.60;5.32;;;13.30;99.90;;;;;;5061206;28;20040;-67
2023/10/10 00:53:33;;;;;;;14.02;5.68;;;13.20;99.90;;;;;;5055604;28;20585;-67
2023/10/10 00:56:00;;;;;;;10.82;4.22;;;13.20;99.90;;;;;;5067623;28;20046;-67
2023/10/10 00:58:36;;;;;;;13.80;4.97;;;13.10;99.90;;;;;;5059569;28;20453;-67
2023/10/10 01:01:07;;;;;;;12.02;4.97;;;13.10;99.90;;;;;;5060282;28;20040;-67
2023/10/10 01:03:34;;;;;;;13.13;5.03;;;13.00;99.90;;;;;;5067510;28;20075;-67
2023/10/10 01:06:05;;;;;;;18.38;5.45;;;13.00;99.90;;;;;;5057122;28;20089;-67
2023/10/10 01:08:52;;;;;;;11.00;4.40;;;12.90;99.90;;;;;;5064557;28;20387;-67
2023/10/10 01:11:19;;;;;;;15.75;5.57;;;12.90;99.90;;;;;;5070909;28;20052;-67
2023/10/10 01:13:45;;;;;;;12.27;5.10;;;12.90;99.90;;;;;;5059016;28;20405;-67
2023/10/10 01:16:12;;;;;;;12.18;5.10;;;12.90;99.90;;;;;;5060032;28;20025;-67
2023/10/10 01:18:51;;;;;;;13.02;4.82;;;12.90;99.90;;;;;;5069472;28;20033;-67
2023/10/10 01:21:29;;;;;;;16.42;6.15;;;12.80;99.90;;;;;;5059575;28;20041;-67
2023/10/10 01:24:00;;;;;;;11.15;4.25;;;12.80;99.90;;;;;;5058551;28;20029;-67
2023/10/10 01:26:36;;;;;;;13.68;4.85;;;12.80;99.90;;;;;;5066328;28;20031;-67
2023/10/10 01:29:13;;;;;;;14.93;5.40;;;12.80;99.90;;;;;;5071358;28;20058;-67
2023/10/10 01:31:42;;;;;;;11.75;5.72;;;12.70;99.90;;;;;;5061086;28;20473;-67
2023/10/10 01:34:23;;;;;;;14.00;5.15;;;12.70;99.90;;;;;;5060907;28;20032;-67
2023/10/10 01:36:50;;;;;;;11.02;5.57;;;12.70;99.90;;;;;;5069879;28;20021;-67
2023/10/10 01:39:45;;;;;;;9.50;4.43;;;12.70;99.90;;;;;;5056341;28;20040;-68
2023/10/10 01:42:13;;;;;;;11.05;4.68;;;12.70;99.90;;;;;;5046686;28;20029;-67
2023/10/10 01:44:39;;;;;;;9.77;5.03;;;12.60;99.90;;;;;;5069961;28;20093;-67
2023/10/10 01:47:18;;;;;;;16.92;6.10;;;12.60;99.90;;;;;;5049172;28;20060;-67
2023/10/10 01:49:45;;;;;;;11.77;5.03;;;12.50;99.90;;;;;;5040208;28;20045;-67
2023/10/10 01:52:17;;;;;;;13.95;5.40;;;12.50;99.90;;;;;;5043564;28;20028;-67
2023/10/10 01:54:45;;;;;;;13.93;5.95;;;12.40;99.90;;;;;;5037249;28;20021;-67
2023/10/10 01:57:21;;;;;;;13.90;5.28;;;12.50;99.90;;;;;;5036912;28;20083;-67
2023/10/10 01:59:47;;;;;;;12.75;5.03;;;12.50;99.90;;;;;;5041709;28;20040;-67
2023/10/10 02:02:13;;;;;;;13.68;5.00;;;12.40;99.90;;;;;;5046493;28;20033;-67
2023/10/10 02:04:40;;;;;;;12.02;5.95;;;12.40;99.90;;;;;;5043129;28;20490;-67
2023/10/10 02:07:25;;;;;;;14.68;5.72;;;12.40;99.90;;;;;;5039967;28;20371;-67
2023/10/10 02:12:34;;;;;;;19.63;5.97;;;12.30;99.90;;;;;;5038008;28;20037;-67
2023/10/10 02:15:01;;;;;;;15.35;5.53;;;12.30;99.90;;;;;;5036525;28;20049;-67
2023/10/10 02:17:29;;;;;;;12.05;4.50;;;12.20;99.90;;;;;;5045647;28;20028;-67
2023/10/10 02:20:19;;;;;;;12.73;6.28;;;12.30;99.90;;;;;;5046628;28;20040;-67
2023/10/10 02:22:51;;;;;;;12.05;5.22;;;12.10;99.90;;;;;;5042324;28;20048;-67
2023/10/10 02:28:08;;;;;;;19.27;6.07;;;12.20;99.90;;;;;;5039310;28;20100;-67
2023/10/10 02:30:37;;;;;;;11.48;4.95;;;12.10;99.90;;;;;;5033670;28;20113;-67
2023/10/10 02:33:31;;;;;;;16.58;6.03;;;12.20;99.90;;;;;;5040429;28;20028;-67
2023/10/10 02:35:56;;;;;;;12.75;5.55;;;12.10;99.90;;;;;;5042442;28;20041;-67
2023/10/10 02:38:31;;;;;;;15.27;5.25;;;12.00;99.90;;;;;;5045440;28;20036;-67
2023/10/10 02:46:34;;;;;;;15.35;6.25;;;12.00;99.90;;;;;;5032176;28;20036;-67
2023/10/10 02:49:09;;;;;;;17.42;5.30;;;11.90;99.90;;;;;;5050903;28;20402;-67
2023/10/10 02:51:40;;;;;;;17.05;5.97;;;11.80;99.90;;;;;;5064475;28;20381;-67
2023/10/10 02:54:20;;;;;;;15.55;5.90;;;11.80;99.90;;;;;;5060720;28;20017;-67
2023/10/10 02:56:48;;;;;;;14.40;5.30;;;11.80;99.90;;;;;;5061524;28;20025;-67
2023/10/10 02:59:21;;;;;;;11.48;5.43;;;11.70;99.90;;;;;;5062680;28;20035;-68
2023/10/10 03:01:59;;;;;;;13.43;5.72;;;11.70;99.90;;;;;;5065369;28;20044;-67
2023/10/10 03:04:52;;;;;;;19.33;6.60;;;11.70;99.90;;;;;;5041586;28;20459;-68
2023/10/10 03:07:11;;;;;;;12.07;5.97;;;11.70;99.90;;;;;;5060400;28;20119;-67
2023/10/10 03:10:06;;;;;;;14.65;5.97;;;11.70;99.90;;;;;;5064731;28;20107;-67
2023/10/10 03:12:29;;;;;;;12.95;6.10;;;11.70;99.90;;;;;;5051810;28;20037;-67
2023/10/10 03:14:55;;;;;;;12.73;5.93;;;11.60;99.90;;;;;;5055820;28;20021;-68
2023/10/10 03:17:31;;;;;;;24.17;6.60;;;11.60;99.90;;;;;;5065114;28;20032;-68
2023/10/10 03:20:24;;;;;;;18.58;6.93;;;11.60;99.90;;;;;;5057084;28;20062;-68
2023/10/10 03:26:04;;;;;;;19.98;6.72;;;11.60;99.90;;;;;;5063967;28;20036;-67
2023/10/10 03:28:34;;;;;;;21.38;7.47;;;11.60;99.90;;;;;;5070248;28;20063;-68
2023/10/10 05:23:29;;;;;;;15.05;6.38;;;11.50;99.90;;;;;;5049509;28;20474;-68
2023/10/10 05:25:44;;;;;;;13.90;5.45;;;11.30;99.90;;;;;;5000520;28;20026;-71
2023/10/10 05:28:10;;;;;;;20.05;5.18;;;11.30;99.90;;;;;;5008105;28;20463;-67
2023/10/10 05:30:45;;;;;;;13.98;5.68;;;11.30;99.90;;;;;;5001929;28;20117;-67
2023/10/10 05:33:12;;;;;;;12.63;5.18;;;11.30;99.90;;;;;;5001406;28;20091;-67
2023/10/10 05:35:47;;;;;;;15.07;5.15;;;11.20;99.90;;;;;;4998246;28;20030;-68
2023/10/10 05:38:15;;;;;;;14.07;5.72;;;11.10;99.90;;;;;;4990418;28;20162;-67
2023/10/10 05:40:43;;;;;;;16.90;6.15;;;11.10;99.90;;;;;;4995423;28;20101;-68
2023/10/10 05:43:09;;;;;;;16.45;6.68;;;11.10;99.90;;;;;;4998377;28;20034;-68
2023/10/10 05:45:37;;;;;;;15.75;6.25;;;11.00;99.90;;;;;;5003002;28;20025;-72
2023/10/10 05:48:05;;;;;;;19.52;6.35;;;11.10;99.90;;;;;;4993890;28;20588;-68
2023/10/10 05:50:32;;;;;;;19.67;6.50;;;11.00;99.90;;;;;;4998109;28;20034;-68
2023/10/10 05:53:00;;;;;;;20.65;6.97;;;11.00;99.90;;;;;;5003988;28;20573;-68
2023/10/10 05:55:29;;;;;;;17.63;6.63;;;11.00;99.90;;;;;;5000297;28;20510;-66
2023/10/10 05:57:57;;;;;;;18.45;7.15;;;11.00;99.90;;;;;;5057317;28;20070;-67
2023/10/10 06:00:27;;;;;;;17.90;7.90;;;11.00;99.90;;;;;;5063549;28;20024;-67
2023/10/10 06:02:53;;;;;;;18.88;7.68;;;11.00;99.90;;;;;;5070182;28;20035;-67
2023/10/10 06:05:18;;;;;;;17.60;7.70;;;11.00;99.90;;;;;;5060088;28;20044;-67
2023/10/10 06:07:44;;;;;;;23.42;7.25;;;11.00;99.90;;;;;;5063498;28;20032;-68
2023/10/10 06:10:16;;;;;;;19.63;7.90;;;11.00;99.90;;;;;;5058821;28;20029;-68
2023/10/10 06:12:46;;;;;;;21.13;7.65;;;11.10;99.90;;;;;;5062708;28;20037;-68
2023/10/10 06:15:16;;;;;;;15.63;6.88;;;11.10;99.90;;;;;;5055957;28;20033;-67
2023/10/10 06:17:43;;;;;;;19.65;7.22;;;11.20;99.90;;;;;;5062531;28;20432;-69
2023/10/10 06:20:21;;;;;;;23.05;6.53;;;11.30;99.90;;;;;;5064473;28;20032;-68
2023/10/10 06:22:54;;;;;;;19.63;7.85;;;11.30;99.90;;;;;;5037610;28;20053;-68
2023/10/10 06:25:21;;;;;;;22.38;7.20;;;11.40;99.90;;;;;;5050463;28;20048;-68
2023/10/10 06:27:54;;;;;;;20.33;7.20;;;11.50;99.90;;;;;;5066191;28;20033;-69
2023/10/10 06:30:24;;;;;;;15.90;6.20;;;11.60;99.90;;;;;;5057068;28;20028;-69
2023/10/10 06:32:51;;;;;;;21.58;6.93;;;11.70;99.90;;;;;;5060107;28;20090;-69
2023/10/10 06:37:51;;;;;;;12.88;6.45;;;11.90;99.90;;;;;;5066562;28;20059;-69
2023/10/10 06:40:24;;;;;;;17.50;6.78;;;12.00;99.90;;;;;;5056067;28;20146;-69
2023/10/10 06:42:55;;;;;;;17.30;6.53;;;12.10;99.90;;;;;;5055655;28;20064;-69
2023/10/10 06:45:26;;;;;;;16.90;6.50;;;12.20;99.90;;;;;;5046538;28;20402;-69
2023/10/10 06:47:54;;;;;;;14.55;6.30;;;12.30;99.90;;;;;;5056369;28;20390;-69
2023/10/10 06:50:22;;;;;;;14.68;5.82;;;12.40;99.90;;;;;;5061850;28;20037;-69
2023/10/10 06:52:52;;;;;;;13.98;6.25;;;12.50;99.90;;;;;;5047289;28;20043;-69
2023/10/10 06:55:22;;;;;;;15.70;6.50;;;12.60;99.90;;;;;;5062702;28;20115;-70
2023/10/10 06:58:01;;;;;;;14.73;6.60;;;12.60;99.90;;;;;;5049427;28;20044;-69
2023/10/10 07:00:28;;;;;;;21.52;7.35;;;12.70;99.90;;;;;;5053265;28;20033;-68
2023/10/10 07:02:58;;;;;;;19.20;6.75;;;12.80;99.90;;;;;;5068300;28;20090;-69
2023/10/10 07:05:33;;;;;;;19.48;6.35;;;12.90;99.90;;;;;;5051795;28;20025;-69
2023/10/10 07:07:59;;;;;;;17.55;7.03;;;12.90;99.90;;;;;;5049038;28;20032;-70
2023/10/10 07:10:32;;;;;;;21.35;8.00;;;13.00;99.90;;;;;;5062692;28;20041;-69
2023/10/10 07:13:01;;;;;;;23.58;8.75;;;13.10;99.90;;;;;;5050606;28;20086;-69
2023/10/10 07:15:35;;;;;;;20.95;7.75;;;13.20;99.90;;;;;;5056160;28;20561;-69
2023/10/10 07:18:14;;;;;;;20.70;8.10;;;13.30;99.90;;;;;;5047612;28;20021;-69
2023/10/10 07:21:04;;;;;;;18.45;7.53;;;13.40;99.90;;;;;;5043643;28;20025;-69
2023/10/10 07:23:39;;;;;;;23.50;8.80;;;13.60;99.90;;;;;;5058044;28;20446;-68
2023/10/10 07:26:23;;;;;;;30.90;8.80;;;13.70;99.90;;;;;;5048003;28;20033;-69
2023/10/10 07:28:49;;;;;;;26.75;8.77;;;13.90;99.90;;;;;;5057650;28;20027;-69
2023/10/10 07:31:24;;;;;;;32.75;9.80;;;14.10;99.90;;;;;;5058303;28;20029;-69
2023/10/10 07:33:57;;;;;;;25.40;9.13;;;14.20;99.90;;;;;;5058448;28;20082;-69
2023/10/10 07:36:24;;;;;;;20.20;8.20;;;14.30;99.90;;;;;;5060521;28;20060;-69
2023/10/10 07:38:54;;;;;;;17.25;7.25;;;14.40;99.90;;;;;;5058482;28;20365;-69
2023/10/10 07:41:28;;;;;;;20.27;7.05;;;14.40;99.90;;;;;;5052602;28;20043;-69
2023/10/10 07:43:59;;;;;;;23.73;8.05;;;14.60;99.90;;;;;;5058775;28;20032;-69
2023/10/10 07:46:27;;;;;;;20.00;7.43;;;14.70;99.90;;;;;;5061637;28;20041;-69
2023/10/10 07:48:56;;;;;;;15.50;7.00;;;14.80;99.90;;;;;;5054342;28;20045;-69
2023/10/10 07:51:29;;;;;;;29.25;9.45;;;15.00;99.90;;;;;;5057649;28;20538;-69
2023/10/10 07:54:13;;;;;;;26.00;8.48;;;15.10;99.90;;;;;;5055525;28;20025;-69
2023/10/10 07:56:48;;;;;;;24.08;8.15;;;15.30;99.90;;;;;;5051863;28;20036;-69
2023/10/10 07:59:14;;;;;;;18.52;7.22;;;15.50;99.90;;;;;;5057462;28;20384;-69
2023/10/10 08:01:44;;;;;;;27.98;9.73;;;15.60;99.90;;;;;;5055385;28;20059;-69
2023/10/10 08:04:14;;;;;;;23.95;8.98;;;15.70;99.90;;;;;;5063785;28;20025;-69
2023/10/10 08:06:44;;;;;;;;;;;15.80;99.90;;;;;;5055959;28;20394;-70
2023/10/10 08:11:43;;;;;;;26.35;8.70;;;15.90;99.90;;;;;;5058982;28;20361;-69
2023/10/10 08:14:09;;;;;;;24.88;9.15;;;16.00;99.90;;;;;;5062555;28;20040;-69
2023/10/10 08:16:36;;;;;;;18.33;7.10;;;16.00;99.90;;;;;;5047282;28;20493;-70
2023/10/10 08:19:05;;;;;;;23.50;8.75;;;16.10;99.90;;;;;;5059943;28;20028;-69
2023/10/10 08:21:38;;;;;;;23.38;7.63;;;16.10;99.90;;;;;;5058865;28;20044;-69
2023/10/10 08:24:04;;;;;;;50.28;10.65;;;16.20;99.90;;;;;;5052929;28;20044;-69
2023/10/10 08:26:38;;;;;;;27.95;8.90;;;16.30;99.90;;;;;;5058751;28;20493;-69
2023/10/10 08:29:06;;;;;;;25.38;9.40;;;16.50;99.90;;;;;;5065788;28;20111;-69
2023/10/10 08:31:32;;;;;;;21.98;8.30;;;16.70;99.90;;;;;;5052759;28;20060;-69
2023/10/10 08:33:58;;;;;;;32.20;9.10;;;16.80;99.90;;;;;;5044107;28;20058;-69
2023/10/10 08:36:23;;;;;;;27.02;8.60;;;16.90;99.90;;;;;;5059491;28;20036;-70
2023/10/10 08:38:54;;;;;;;26.55;9.10;;;17.10;99.90;;;;;;5062088;28;20028;-68
2023/10/10 08:41:26;;;;;;;30.70;8.90;;;17.20;99.90;;;;;;5052329;28;20473;-68
2023/10/10 08:43:53;;;;;;;23.80;7.78;;;17.40;99.90;;;;;;5058745;28;20363;-68
2023/10/10 08:46:24;;;;;;;23.98;7.32;;;17.40;99.90;;;;;;5062664;28;20466;-69
2023/10/10 08:48:50;;;;;;;22.75;7.45;;;17.50;99.90;;;;;;5049920;28;20494;-69
2023/10/10 08:51:17;;;;;;;23.23;8.00;;;17.50;99.90;;;;;;5055573;28;20463;-69
2023/10/10 08:53:43;;;;;;;19.40;6.97;;;17.50;99.90;;;;;;5057120;28;20021;-69
2023/10/10 08:56:09;;;;;;;18.77;6.97;;;17.50;99.90;;;;;;5068763;28;20086;-69
2023/10/10 08:58:36;;;;;;;15.98;6.43;;;17.50;99.90;;;;;;5053541;28;20045;-68
2023/10/10 09:01:02;;;;;;;17.50;6.50;;;17.60;99.90;;;;;;5056338;28;20033;-69
2023/10/10 09:03:28;;;;;;;23.95;7.70;;;17.70;99.90;;;;;;5062867;28;20424;-69
2023/10/10 09:05:55;;;;;;;24.90;7.30;;;18.00;99.90;;;;;;5062537;28;20021;-68
2023/10/10 09:08:26;;;;;;;21.13;8.50;;;18.20;99.90;;;;;;5055485;28;20025;-69
2023/10/10 09:10:56;;;;;;;31.45;7.47;;;18.30;99.90;;;;;;5064429;28;20043;-69
2023/10/10 09:13:25;;;;;;;25.08;7.80;;;18.50;99.90;;;;;;5065860;28;20039;-70
2023/10/10 09:15:55;;;;;;;16.52;7.18;;;18.80;99.90;;;;;;5056128;28;20478;-69
2023/10/10 09:18:22;;;;;;;24.92;7.32;;;18.90;99.90;;;;;;5063823;28;20059;-69
2023/10/10 09:20:49;;;;;;;19.17;7.75;;;19.10;99.90;;;;;;5064878;28;20025;-69
2023/10/10 09:23:26;;;;;;;25.27;7.38;;;19.30;99.90;;;;;;5055816;28;20044;-69
2023/10/10 09:26:09;;;;;;;25.40;7.25;;;19.50;99.90;;;;;;5057891;28;20484;-69
2023/10/10 09:28:49;;;;;;;25.20;7.55;;;19.60;99.90;;;;;;5044883;28;20104;-69
2023/10/10 09:31:26;;;;;;;25.50;7.43;;;19.80;99.90;;;;;;5062507;28;20379;-68
2023/10/10 09:33:55;;;;;;;28.27;7.82;;;20.00;99.90;;;;;;5054050;28;20025;-67
2023/10/10 09:36:26;;;;;;;18.85;6.82;;;20.10;99.90;;;;;;5062735;28;20090;-69
2023/10/10 09:39:08;;;;;;;19.52;6.30;;;20.20;99.90;;;;;;5056717;28;20025;-69
2023/10/10 09:42:00;;;;;;;25.63;6.80;;;20.30;99.90;;;;;;5052360;28;20129;-69
2023/10/10 09:57:42;;;;;;;20.15;7.38;;;20.60;99.90;;;;;;5063049;28;20029;-69
2023/10/10 10:00:15;;;;;;;24.83;7.93;;;20.60;99.90;;;;;;5057504;28;20036;-69
2023/10/10 10:02:50;;;;;;;23.00;7.35;;;20.80;99.90;;;;;;5068356;28;20043;-69
2023/10/10 10:05:21;;;;;;;20.63;7.07;;;20.90;99.90;;;;;;5070288;28;20032;-69
2023/10/10 10:08:21;;;;;;;24.88;8.02;;;21.10;99.90;;;;;;5053744;28;20029;-68
2023/10/10 10:10:57;;;;;;;26.77;7.22;;;21.10;99.90;;;;;;5059467;28;20377;-68
2023/10/10 10:13:48;;;;;;;24.05;7.53;;;21.20;99.90;;;;;;5068461;28;20063;-69
2023/10/10 10:16:44;;;;;;;32.58;8.27;;;21.20;99.90;;;;;;5054469;28;20072;-69
2023/10/10 10:19:17;;;;;;;23.33;7.63;;;21.40;99.90;;;;;;5056925;28;20497;-70
2023/10/10 10:22:06;;;;;;;20.25;7.75;;;21.50;99.90;;;;;;5056895;28;20122;-69
2023/10/10 10:24:50;;;;;;;22.90;6.87;;;21.50;99.90;;;;;;5055110;28;20031;-67
2023/10/10 10:27:39;;;;;;;23.17;7.15;;;21.60;99.90;;;;;;5057785;28;20028;-69
2023/10/10 10:32:44;;;;;;;23.13;6.70;;;21.70;99.90;;;;;;5056456;28;20382;-71
2023/10/10 10:35:15;;;;;;;25.95;7.45;;;21.80;99.90;;;;;;5063053;28;20064;-70
2023/10/10 10:37:42;;;;;;;17.95;7.50;;;21.90;99.90;;;;;;5054501;28;20424;-70
2023/10/10 10:42:46;;;;;;;24.73;7.75;;;22.00;99.90;;;;;;5055120;28;20495;-69
2023/10/10 10:45:36;;;;;;;19.75;7.07;;;22.10;99.90;;;;;;5065620;28;20024;-69
2023/10/10 10:48:11;;;;;;;22.08;7.60;;;22.30;99.90;;;;;;5044083;28;20390;-69
2023/10/10 10:50:42;;;;;;;17.85;7.03;;;22.30;99.90;;;;;;5057020;28;20054;-69
2023/10/10 10:53:30;;;;;;;19.80;7.70;;;22.30;99.90;;;;;;5061536;28;20549;-69
2023/10/10 10:59:11;;;;;;;28.02;8.05;;;22.40;99.90;;;;;;5056258;28;20463;-69
2023/10/10 11:01:42;;;;;;;17.88;7.20;;;22.60;99.90;;;;;;5051412;28;20121;-70
2023/10/10 11:04:14;;;;;;;24.83;7.68;;;22.80;99.90;;;;;;5069250;28;20039;-71
2023/10/10 11:06:52;;;;;;;20.00;7.40;;;23.00;99.90;;;;;;5060001;28;20041;-71
2023/10/10 11:09:28;;;;;;;26.85;8.57;;;23.20;99.90;;;;;;5053946;28;20462;-69
2023/10/10 11:12:02;;;;;;;19.63;7.45;;;23.30;99.90;;;;;;5065657;28;20040;-69
2023/10/10 11:14:29;;;;;;;19.60;7.63;;;23.40;99.90;;;;;;5060567;28;20091;-69
2023/10/10 11:16:57;;;;;;;20.50;7.57;;;23.40;99.90;;;;;;5056106;28;20458;-69
2023/10/10 11:19:38;;;;;;;22.73;7.80;;;23.60;99.90;;;;;;5055533;28;20107;-69
2023/10/10 11:22:15;;;;;;;22.17;8.07;;;23.60;99.90;;;;;;5050744;28;20043;-69
2023/10/10 11:24:47;;;;;;;22.92;7.85;;;;;;;;;;5056227;28;20062;-70
2023/10/10 11:27:14;;;;;;;22.23;7.85;;;;;;;;;;5063607;28;20116;-68
2023/10/10 11:29:46;;;;;;;26.70;8.65;;;;;;;;;;5059693;28;20056;-70
2023/10/10 11:32:24;;;;;;;21.10;8.13;;;;;;;;;;5054962;28;20465;-70
2023/10/10 11:35:17;;;;;;;24.05;8.60;;;;;;;;;;5058174;28;20100;-70
2023/10/10 11:37:47;;;;;;;26.67;7.72;;;;;;;;;;5060114;28;20686;-68
2023/10/10 11:42:54;;;;;;;18.35;7.22;;;;;;;;;;5053940;28;20040;-68
2023/10/10 11:45:21;;;;;;;19.67;7.88;;;24.80;95.20;;;;;;5062946;28;20021;-70
2023/10/10 11:47:47;;;;;;;24.48;8.20;;;24.90;95.40;;;;;;5049822;28;20053;-68
2023/10/10 11:50:17;;;;;;;23.42;7.75;;;;;;;;;;5050002;28;20032;-69
2023/10/10 11:52:53;;;;;;;18.38;7.53;;;25.00;99.90;;;;;;5063207;28;20107;-69
2023/10/10 11:55:25;;;;;;;14.90;6.63;;;25.30;99.90;;;;;;5048113;28;20045;-69
2023/10/10 11:58:06;;;;;;;21.65;7.60;;;25.40;91.30;;;;;;5063799;28;20466;-69
2023/10/10 12:00:42;;;;;;;21.33;7.13;;;25.50;91.80;;;;;;5043306;28;20491;-69
2023/10/10 12:03:23;;;;;;;19.05;6.32;;;25.70;90.00;;;;;;5065234;28;20591;-69
2023/10/10 12:05:49;;;;;;;19.17;7.15;;;25.80;87.40;;;;;;5049290;28;20028;-68
2023/10/10 12:08:22;;;;;;;18.90;6.80;;;25.80;85.30;;;;;;5055185;28;20021;-69
2023/10/10 12:10:52;;;;;;;16.42;6.72;;;25.80;84.50;;;;;;5059778;28;20082;-68
2023/10/10 12:16:01;;;;;;;18.75;7.65;;;25.90;84.90;;;;;;5052862;28;20033;-70
2023/10/10 12:18:30;;;;;;;23.40;8.32;;;25.90;82.80;;;;;;5062158;28;20036;-69
2023/10/10 12:21:03;;;;;;;18.33;7.68;;;26.00;81.70;;;;;;5046405;28;20083;-70
2023/10/10 12:23:30;;;;;;;17.67;6.90;;;26.00;80.60;;;;;;5054254;28;20040;-70
2023/10/10 12:25:56;;;;;;;24.33;7.32;;;26.00;83.60;;;;;;5049035;28;20049;-69
2023/10/10 12:28:22;;;;;;;25.58;7.60;;;26.10;83.70;;;;;;5063092;28;20068;-69
2023/10/10 12:30:48;;;;;;;17.55;6.88;;;26.20;83.40;;;;;;5055079;28;20048;-68
2023/10/10 12:33:16;;;;;;;13.20;6.15;;;26.20;84.00;;;;;;5068634;28;20050;-69
2023/10/10 12:35:49;;;;;;;19.45;7.28;;;26.30;83.90;;;;;;5057159;28;20501;-69
2023/10/10 12:38:21;;;;;;;19.23;6.97;;;26.30;83.00;;;;;;5059038;28;20025;-69
2023/10/10 12:40:49;;;;;;;23.58;7.43;;;26.30;82.10;;;;;;5055265;28;20032;-68
2023/10/10 12:43:15;;;;;;;23.52;7.85;;;26.20;80.70;;;;;;5051809;28;20056;-69
2023/10/10 12:45:40;;;;;;;22.35;7.10;;;26.20;79.50;;;;;;5051824;28;20029;-67
2023/10/10 12:48:13;;;;;;;13.05;6.80;;;26.20;79.70;;;;;;5055280;28;20044;-68
2023/10/10 12:50:44;;;;;;;18.38;6.47;;;26.20;80.40;;;;;;5059972;28;20032;-69
2023/10/10 12:53:15;;;;;;;20.25;7.35;;;26.20;80.50;;;;;;5053644;28;20094;-70
2023/10/10 12:55:52;;;;;;;22.42;7.40;;;26.30;81.60;;;;;;5060375;28;20526;-68
2023/10/10 12:58:22;;;;;;;20.90;7.88;;;26.40;81.60;;;;;;5058799;28;20152;-69
2023/10/10 13:00:51;;;;;;;25.08;7.32;;;26.40;82.40;;;;;;5056528;28;20039;-68
2023/10/10 13:03:27;;;;;;;15.37;6.43;;;26.40;82.00;;;;;;5060334;28;20059;-70
2023/10/10 13:05:58;;;;;;;26.55;8.23;;;26.30;82.60;;;;;;5058827;28;20066;-69
2023/10/10 13:08:25;;;;;;;21.67;7.78;;;26.40;82.80;;;;;;5072854;28;20602;-69
2023/10/10 13:10:54;;;;;;;18.88;7.13;;;26.40;81.80;;;;;;5058294;28;20037;-70
2023/10/10 13:13:27;;;;;;;28.00;7.03;;;26.50;81.10;;;;;;5064234;28;20493;-69
2023/10/10 13:18:41;;;;;;;19.38;6.68;;;26.60;81.60;;;;;;5022521;28;20371;-69
2023/10/10 13:21:07;;;;;;;19.77;7.70;;;26.70;81.80;;;;;;5059772;28;20028;-68
2023/10/10 13:23:35;;;;;;;22.38;7.90;;;26.60;81.90;;;;;;5049036;28;20487;-69
2023/10/10 13:26:01;;;;;;;20.80;6.97;;;26.70;82.90;;;;;;5057019;28;20033;-70
2023/10/10 13:28:26;;;;;;;24.65;7.30;;;26.60;82.60;;;;;;5062734;28;20479;-69
2023/10/10 13:30:52;;;;;;;33.85;7.03;;;26.70;82.50;;;;;;5058347;28;20036;-68
2023/10/10 13:33:20;;;;;;;20.27;6.85;;;26.60;82.40;;;;;;5072527;28;20051;-69
2023/10/10 13:35:48;;;;;;;31.63;7.38;;;26.50;82.50;;;;;;5054060;28;20048;-68
2023/10/10 13:38:14;;;;;;;25.20;7.00;;;26.50;81.80;;;;;;5065427;28;20108;-69
2023/10/10 13:40:46;;;;;;;23.33;7.60;;;26.40;81.70;;;;;;5056473;28;20168;-69
2023/10/10 13:43:22;;;;;;;23.08;7.47;;;26.30;82.20;;;;;;5054467;28;20474;-69
2023/10/10 13:45:48;;;;;;;23.48;7.57;;;26.20;81.50;;;;;;5053590;28;20044;-68
2023/10/10 13:48:15;;;;;;;18.40;7.93;;;26.10;81.60;;;;;;5056044;28;20145;-80
2023/10/10 13:50:41;;;;;;;19.67;7.38;;;26.10;82.40;;;;;;5053312;28;20032;-69
2023/10/10 13:53:12;;;;;;;17.05;7.05;;;26.10;82.00;;;;;;5048231;28;20036;-69
2023/10/10 13:55:38;;;;;;;21.52;7.28;;;26.00;81.50;;;;;;5061675;28;20039;-68
2023/10/10 13:58:16;;;;;;;23.33;7.82;;;26.00;80.90;;;;;;5062841;28;20358;-71
2023/10/10 14:00:52;;;;;;;22.85;7.35;;;25.90;80.70;;;;;;5056877;28;20111;-68
2023/10/10 14:03:28;;;;;;;21.90;7.32;;;25.90;79.80;;;;;;5057274;28;20549;-68
2023/10/10 14:06:03;;;;;;;23.35;7.93;;;25.80;79.70;;;;;;5050422;28;20085;-68
2023/10/10 14:08:32;;;;;;;20.95;7.18;;;25.80;79.70;;;;;;5071302;28;20107;-69
2023/10/10 14:11:00;;;;;;;22.38;8.55;;;25.70;79.20;;;;;;5048558;28;20037;-69
2023/10/10 14:13:27;;;;;;;18.17;7.63;;;25.60;79.60;;;;;;5063078;28;20253;-69
2023/10/10 14:15:57;;;;;;;20.23;7.43;;;25.50;80.10;;;;;;5054284;28;20087;-69
2023/10/10 14:18:50;;;;;;;21.40;7.97;;;25.40;80.20;;;;;;5055766;28;20031;-68
2023/10/10 14:21:17;;;;;;;21.40;8.10;;;25.40;79.70;;;;;;5054472;28;20108;-69
2023/10/10 14:23:45;;;;;;;23.05;7.57;;;25.30;80.70;;;;;;5062460;28;20040;-68
2023/10/10 14:26:18;;;;;;;18.00;7.90;;;25.20;80.60;;;;;;5057756;28;20343;-69
2023/10/10 14:28:51;;;;;;;15.57;8.00;;;25.20;80.90;;;;;;5060372;28;20033;-68
2023/10/10 14:31:20;;;;;;;14.32;7.25;;;25.10;82.00;;;;;;5057036;28;20040;-69
2023/10/10 14:33:46;;;;;;;23.53;7.10;;;25.00;81.30;;;;;;5069753;28;20028;-67
2023/10/10 14:36:12;;;;;;;18.77;7.95;;;25.00;81.40;;;;;;5060514;28;20035;-70
2023/10/10 14:38:49;;;;;;;16.20;7.75;;;25.00;81.40;;;;;;5062808;28;20378;-69
2023/10/10 14:41:17;;;;;;;20.48;8.63;;;24.90;82.90;;;;;;5055550;28;20090;-69
2023/10/10 14:43:49;;;;;;;16.15;7.40;;;24.90;82.80;;;;;;5053830;28;20470;-69
2023/10/10 14:46:23;;;;;;;20.70;7.95;;;24.90;82.10;;;;;;5046430;28;20454;-68
2023/10/10 14:49:00;;;;;;;19.15;7.95;;;24.90;82.60;;;;;;5053418;28;20490;-66
2023/10/10 14:51:29;;;;;;;16.77;7.57;;;24.90;81.20;;;;;;5043758;28;20528;-67
2023/10/10 14:53:55;;;;;;;17.98;7.78;;;24.80;82.50;;;;;;5057525;28;20075;-67
2023/10/10 14:56:34;;;;;;;22.05;8.30;;;24.80;82.10;;;;;;5058117;28;20037;-68
2023/10/10 14:59:01;;;;;;;20.50;8.40;;;24.80;82.10;;;;;;5051579;28;20116;-67
2023/10/10 15:01:34;;;;;;;15.57;7.78;;;24.70;82.00;;;;;;5043337;28;20084;-67
2023/10/10 15:04:02;;;;;;;17.45;8.32;;;24.60;82.40;;;;;;5054921;28;20025;-67
2023/10/10 15:06:29;;;;;;;14.50;7.60;;;24.50;82.60;;;;;;5052999;28;20549;-67
2023/10/10 15:08:55;;;;;;;16.65;8.20;;;24.40;83.30;;;;;;5061616;28;20029;-66
2023/10/10 15:11:21;;;;;;;16.75;7.30;;;24.30;84.60;;;;;;5050312;28;20163;-68
2023/10/10 15:13:47;;;;;;;14.00;7.25;;;24.20;84.50;;;;;;5062222;28;20039;-67
2023/10/10 15:16:13;;;;;;;16.58;7.38;;;24.10;84.10;;;;;;5050096;28;20036;-68
2023/10/10 15:18:41;;;;;;;17.95;7.93;;;24.00;84.70;;;;;;5057430;28;20028;-67
2023/10/10 15:21:06;;;;;;;17.17;8.50;;;23.90;85.00;;;;;;5057006;28;20126;-68
2023/10/10 15:23:32;;;;;;;16.00;7.90;;;23.90;83.80;;;;;;5058883;28;20432;-69
2023/10/10 15:26:05;;;;;;;15.68;7.60;;;23.80;85.00;;;;;;5055138;28;20055;-70
2023/10/10 15:28:31;;;;;;;15.50;7.78;;;23.70;85.30;;;;;;5061728;28;20457;-69
2023/10/10 15:30:57;;;;;;;19.52;7.82;;;23.60;85.10;;;;;;5051847;28;20745;-69
2023/10/10 15:33:25;;;;;;;22.05;7.95;;;23.60;85.60;;;;;;5063254;28;20028;-69
2023/10/10 15:35:52;;;;;;;14.35;6.50;;;23.50;85.80;;;;;;5048031;28;20025;-69
2023/10/10 15:38:18;;;;;;;16.58;6.65;;;23.50;86.10;;;;;;5055970;28;20477;-70
2023/10/10 15:40:45;;;;;;;19.10;8.35;;;23.40;86.50;;;;;;5058770;28;20040;-70
2023/10/10 15:43:14;;;;;;;16.00;7.45;;;23.30;87.40;;;;;;5052101;28;20032;-70